Cape Town International Airport


Codes: FACT/CPT
Name: Cape Town International Airport
City: Cape Town
Country: South Africa
Elevation: 151 ft.
Website:
Wikipedia:

Photos at Cape Town International Airport


   Photos courtesy of SpottingLog. You can add your own sightings and photos by signing up for a free trial today.



No photos found.

Weather at Cape Town International Airport


Time (UTC)DescriptionTempratureWindCloud coverageVisibilityPressureHumidity
15-Apr-2024 18:00Clear Sky21°C4 mph, SE0%10000m1015hPa66%
15-Apr-2024 21:00Clear Sky20°C4 mph, SE0%10000m1016hPa68%
16-Apr-2024 00:00Clear Sky18°C2 mph, SE0%10000m1015hPa76%
16-Apr-2024 03:00Clear Sky17°C2 mph, SE0%10000m1015hPa81%
16-Apr-2024 06:00Clear Sky19°C2 mph, NE0%10000m1015hPa72%
16-Apr-2024 09:00Clear Sky25°C2 mph, W0%10000m1015hPa46%
16-Apr-2024 12:00Clear Sky27°C7 mph, SW1%10000m1013hPa40%
16-Apr-2024 15:00Clear Sky23°C7 mph, SW3%10000m1013hPa52%
16-Apr-2024 18:00Clear Sky19°C2 mph, NW2%10000m1014hPa69%
16-Apr-2024 21:00Clear Sky19°C2 mph, SE0%10000m1013hPa70%
17-Apr-2024 00:00Clear Sky18°C2 mph, SE0%10000m1013hPa71%
17-Apr-2024 03:00Clear Sky17°C2 mph, NW0%10000m1013hPa75%
17-Apr-2024 06:00Clear Sky18°C4 mph, N0%10000m1013hPa68%
17-Apr-2024 09:00Clear Sky24°C7 mph, NW9%10000m1014hPa46%
17-Apr-2024 12:00Few Clouds25°C7 mph, W24%10000m1014hPa44%
17-Apr-2024 15:00Overcast Clouds22°C4 mph, SW93%10000m1015hPa59%
17-Apr-2024 18:00Overcast Clouds18°C4 mph, SE95%10000m1016hPa84%
17-Apr-2024 21:00Broken Clouds17°C2 mph, SE60%10000m1017hPa86%
18-Apr-2024 00:00Scattered Clouds16°C4 mph, S50%10000m1017hPa88%
18-Apr-2024 03:00Scattered Clouds16°C4 mph, S49%10000m1016hPa91%
18-Apr-2024 06:00Scattered Clouds17°C4 mph, S41%10000m1018hPa88%
18-Apr-2024 09:00Broken Clouds22°C7 mph, S70%10000m1018hPa62%
18-Apr-2024 12:00Overcast Clouds23°C7 mph, S85%10000m1017hPa58%
18-Apr-2024 15:00Overcast Clouds20°C7 mph, S100%10000m1016hPa70%
18-Apr-2024 18:00Overcast Clouds17°C4 mph, S99%10000m1017hPa87%
18-Apr-2024 21:00Overcast Clouds18°C2 mph, S100%10000m1016hPa83%
19-Apr-2024 00:00Overcast Clouds18°C2 mph, SE99%10000m1015hPa78%
19-Apr-2024 03:00Overcast Clouds18°C2 mph, S100%10000m1014hPa75%
19-Apr-2024 06:00Overcast Clouds19°C2 mph, NE100%10000m1014hPa67%
19-Apr-2024 09:00Broken Clouds28°C4 mph, NW55%10000m1013hPa32%
19-Apr-2024 12:00Scattered Clouds28°C7 mph, NW34%10000m1013hPa35%
19-Apr-2024 15:00Clear Sky26°C4 mph, NW6%10000m1013hPa37%
19-Apr-2024 18:00Clear Sky18°C2 mph, NW8%10000m1014hPa68%
19-Apr-2024 21:00Scattered Clouds16°C2 mph, NW42%10000m1015hPa78%
20-Apr-2024 00:00Broken Clouds16°C0 mph, NW59%10000m1015hPa82%
20-Apr-2024 03:00Overcast Clouds16°C0 mph, E100%10000m1015hPa81%
20-Apr-2024 06:00Overcast Clouds17°C2 mph, SE100%10000m1015hPa79%
20-Apr-2024 09:00Overcast Clouds22°C4 mph, S100%10000m1015hPa59%
20-Apr-2024 12:00Broken Clouds24°C7 mph, S75%10000m1014hPa52%
20-Apr-2024 15:00Few Clouds21°C7 mph, S22%10000m1013hPa68%